sensor_id;sensor_type;location;lat;lon;timestamp;P1;durP1;ratioP1;P2;durP2;ratioP2
16654;SDS011;8441;51.344;7.022;2022-07-06T00:01:52;0.10;;;0.10;;
16654;SDS011;8441;51.344;7.022;2022-07-06T00:04:20;0.10;;;0.10;;
16654;SDS011;8441;51.344;7.022;2022-07-06T00:06:47;0.10;;;0.10;;
16654;SDS011;8441;51.344;7.022;2022-07-06T00:09:16;0.10;;;0.10;;
16654;SDS011;8441;51.344;7.022;2022-07-06T00:11:43;0.10;;;0.10;;
16654;SDS011;8441;51.344;7.022;2022-07-06T00:14:10;0.10;;;0.10;;
16654;SDS011;8441;51.344;7.022;2022-07-06T00:16:38;0.15;;;0.15;;
16654;SDS011;8441;51.344;7.022;2022-07-06T00:19:05;0.20;;;0.20;;
16654;SDS011;8441;51.344;7.022;2022-07-06T00:21:32;0.10;;;0.10;;
16654;SDS011;8441;51.344;7.022;2022-07-06T00:23:59;0.10;;;0.10;;
16654;SDS011;8441;51.344;7.022;2022-07-06T00:26:28;0.10;;;0.10;;
16654;SDS011;8441;51.344;7.022;2022-07-06T00:28:55;0.10;;;0.10;;
16654;SDS011;8441;51.344;7.022;2022-07-06T00:31:23;0.10;;;0.10;;
16654;SDS011;8441;51.344;7.022;2022-07-06T00:33:50;0.10;;;0.10;;
16654;SDS011;8441;51.344;7.022;2022-07-06T00:36:18;0.10;;;0.10;;
16654;SDS011;8441;51.344;7.022;2022-07-06T00:38:45;0.20;;;0.20;;
16654;SDS011;8441;51.344;7.022;2022-07-06T00:41:12;0.10;;;0.10;;
16654;SDS011;8441;51.344;7.022;2022-07-06T00:43:47;0.20;;;0.20;;
16654;SDS011;8441;51.344;7.022;2022-07-06T00:46:15;0.10;;;0.10;;
16654;SDS011;8441;51.344;7.022;2022-07-06T00:48:43;0.10;;;0.10;;
16654;SDS011;8441;51.344;7.022;2022-07-06T00:51:10;0.10;;;0.10;;
16654;SDS011;8441;51.344;7.022;2022-07-06T00:53:38;0.20;;;0.20;;
16654;SDS011;8441;51.344;7.022;2022-07-06T00:56:06;0.10;;;0.10;;
16654;SDS011;8441;51.344;7.022;2022-07-06T00:58:34;0.20;;;0.20;;
16654;SDS011;8441;51.344;7.022;2022-07-06T01:01:02;0.10;;;0.10;;
16654;SDS011;8441;51.344;7.022;2022-07-06T01:03:29;0.20;;;0.20;;
16654;SDS011;8441;51.344;7.022;2022-07-06T01:05:57;0.10;;;0.10;;
16654;SDS011;8441;51.344;7.022;2022-07-06T01:08:24;0.10;;;0.10;;
16654;SDS011;8441;51.344;7.022;2022-07-06T01:10:51;0.17;;;0.17;;
16654;SDS011;8441;51.344;7.022;2022-07-06T01:13:19;0.10;;;0.10;;
16654;SDS011;8441;51.344;7.022;2022-07-06T01:15:46;0.20;;;0.20;;
16654;SDS011;8441;51.344;7.022;2022-07-06T01:18:15;0.10;;;0.10;;
16654;SDS011;8441;51.344;7.022;2022-07-06T01:20:43;0.10;;;0.10;;
16654;SDS011;8441;51.344;7.022;2022-07-06T01:23:11;0.10;;;0.10;;
16654;SDS011;8441;51.344;7.022;2022-07-06T01:25:38;0.20;;;0.20;;
16654;SDS011;8441;51.344;7.022;2022-07-06T01:28:06;0.10;;;0.10;;
16654;SDS011;8441;51.344;7.022;2022-07-06T01:30:33;0.10;;;0.10;;
16654;SDS011;8441;51.344;7.022;2022-07-06T01:33:00;0.20;;;0.20;;
16654;SDS011;8441;51.344;7.022;2022-07-06T01:35:27;0.10;;;0.10;;
16654;SDS011;8441;51.344;7.022;2022-07-06T01:37:59;0.10;;;0.10;;
16654;SDS011;8441;51.344;7.022;2022-07-06T01:40:26;0.20;;;0.20;;
16654;SDS011;8441;51.344;7.022;2022-07-06T01:42:53;0.20;;;0.20;;
16654;SDS011;8441;51.344;7.022;2022-07-06T01:45:21;0.10;;;0.10;;
16654;SDS011;8441;51.344;7.022;2022-07-06T01:47:48;0.10;;;0.10;;
16654;SDS011;8441;51.344;7.022;2022-07-06T01:50:15;0.15;;;0.15;;
16654;SDS011;8441;51.344;7.022;2022-07-06T01:52:42;0.10;;;0.10;;
16654;SDS011;8441;51.344;7.022;2022-07-06T01:55:11;0.10;;;0.10;;
16654;SDS011;8441;51.344;7.022;2022-07-06T01:57:38;0.10;;;0.10;;
16654;SDS011;8441;51.344;7.022;2022-07-06T02:00:07;0.10;;;0.10;;
16654;SDS011;8441;51.344;7.022;2022-07-06T02:02:35;0.20;;;0.20;;
16654;SDS011;8441;51.344;7.022;2022-07-06T02:05:02;0.15;;;0.15;;
16654;SDS011;8441;51.344;7.022;2022-07-06T02:07:30;0.20;;;0.20;;
16654;SDS011;8441;51.344;7.022;2022-07-06T02:09:57;0.20;;;0.20;;
16654;SDS011;8441;51.344;7.022;2022-07-06T02:12:25;0.20;;;0.20;;
16654;SDS011;8441;51.344;7.022;2022-07-06T02:14:52;0.20;;;0.20;;
16654;SDS011;8441;51.344;7.022;2022-07-06T02:17:20;0.20;;;0.20;;
16654;SDS011;8441;51.344;7.022;2022-07-06T02:19:47;0.10;;;0.10;;
16654;SDS011;8441;51.344;7.022;2022-07-06T02:22:14;0.20;;;0.20;;
16654;SDS011;8441;51.344;7.022;2022-07-06T02:24:41;0.20;;;0.20;;
16654;SDS011;8441;51.344;7.022;2022-07-06T02:27:09;0.10;;;0.10;;
16654;SDS011;8441;51.344;7.022;2022-07-06T02:29:37;0.10;;;0.10;;
16654;SDS011;8441;51.344;7.022;2022-07-06T02:32:04;0.20;;;0.20;;
16654;SDS011;8441;51.344;7.022;2022-07-06T02:34:32;0.10;;;0.10;;
16654;SDS011;8441;51.344;7.022;2022-07-06T02:36:59;0.10;;;0.10;;
16654;SDS011;8441;51.344;7.022;2022-07-06T02:39:27;0.10;;;0.10;;
16654;SDS011;8441;51.344;7.022;2022-07-06T02:41:54;0.10;;;0.10;;
16654;SDS011;8441;51.344;7.022;2022-07-06T02:44:21;0.20;;;0.20;;
16654;SDS011;8441;51.344;7.022;2022-07-06T02:46:50;0.10;;;0.10;;
16654;SDS011;8441;51.344;7.022;2022-07-06T02:49:17;0.10;;;0.10;;
16654;SDS011;8441;51.344;7.022;2022-07-06T02:51:44;0.17;;;0.17;;
16654;SDS011;8441;51.344;7.022;2022-07-06T02:54:11;0.10;;;0.10;;
16654;SDS011;8441;51.344;7.022;2022-07-06T02:56:39;0.13;;;0.13;;
16654;SDS011;8441;51.344;7.022;2022-07-06T02:59:06;0.10;;;0.10;;
16654;SDS011;8441;51.344;7.022;2022-07-06T03:01:33;0.20;;;0.20;;
16654;SDS011;8441;51.344;7.022;2022-07-06T03:04:01;0.10;;;0.10;;
16654;SDS011;8441;51.344;7.022;2022-07-06T03:06:29;0.20;;;0.20;;
16654;SDS011;8441;51.344;7.022;2022-07-06T03:08:56;0.20;;;0.20;;
16654;SDS011;8441;51.344;7.022;2022-07-06T03:11:23;0.10;;;0.10;;
16654;SDS011;8441;51.344;7.022;2022-07-06T03:13:50;0.20;;;0.20;;
16654;SDS011;8441;51.344;7.022;2022-07-06T03:16:17;0.20;;;0.20;;
16654;SDS011;8441;51.344;7.022;2022-07-06T03:18:45;0.10;;;0.10;;
16654;SDS011;8441;51.344;7.022;2022-07-06T03:21:13;0.10;;;0.10;;
16654;SDS011;8441;51.344;7.022;2022-07-06T03:23:40;0.10;;;0.10;;
16654;SDS011;8441;51.344;7.022;2022-07-06T03:26:07;0.10;;;0.10;;
16654;SDS011;8441;51.344;7.022;2022-07-06T03:28:35;0.10;;;0.10;;
16654;SDS011;8441;51.344;7.022;2022-07-06T03:31:02;0.13;;;0.13;;
16654;SDS011;8441;51.344;7.022;2022-07-06T03:33:29;0.10;;;0.10;;
16654;SDS011;8441;51.344;7.022;2022-07-06T03:35:56;0.10;;;0.10;;
16654;SDS011;8441;51.344;7.022;2022-07-06T03:38:25;0.10;;;0.10;;
16654;SDS011;8441;51.344;7.022;2022-07-06T03:40:52;0.13;;;0.13;;
16654;SDS011;8441;51.344;7.022;2022-07-06T03:43:19;0.10;;;0.10;;
16654;SDS011;8441;51.344;7.022;2022-07-06T03:45:46;0.10;;;0.10;;
16654;SDS011;8441;51.344;7.022;2022-07-06T03:48:14;0.20;;;0.20;;
16654;SDS011;8441;51.344;7.022;2022-07-06T03:50:41;0.17;;;0.17;;
16654;SDS011;8441;51.344;7.022;2022-07-06T03:53:08;0.15;;;0.15;;
16654;SDS011;8441;51.344;7.022;2022-07-06T03:55:37;0.20;;;0.20;;
16654;SDS011;8441;51.344;7.022;2022-07-06T03:58:04;0.10;;;0.10;;
16654;SDS011;8441;51.344;7.022;2022-07-06T04:00:31;0.10;;;0.10;;
16654;SDS011;8441;51.344;7.022;2022-07-06T04:02:59;0.10;;;0.10;;
16654;SDS011;8441;51.344;7.022;2022-07-06T04:05:27;0.10;;;0.10;;
16654;SDS011;8441;51.344;7.022;2022-07-06T04:07:54;0.10;;;0.10;;
16654;SDS011;8441;51.344;7.022;2022-07-06T04:10:21;0.10;;;0.10;;
16654;SDS011;8441;51.344;7.022;2022-07-06T04:12:50;0.15;;;0.15;;
16654;SDS011;8441;51.344;7.022;2022-07-06T04:15:17;0.10;;;0.10;;
16654;SDS011;8441;51.344;7.022;2022-07-06T04:17:44;0.20;;;0.20;;
16654;SDS011;8441;51.344;7.022;2022-07-06T04:20:18;0.20;;;0.20;;
16654;SDS011;8441;51.344;7.022;2022-07-06T04:22:45;0.17;;;0.17;;
16654;SDS011;8441;51.344;7.022;2022-07-06T04:25:13;0.20;;;0.20;;
16654;SDS011;8441;51.344;7.022;2022-07-06T04:27:40;0.20;;;0.20;;
16654;SDS011;8441;51.344;7.022;2022-07-06T04:30:09;0.10;;;0.10;;
16654;SDS011;8441;51.344;7.022;2022-07-06T04:32:37;0.15;;;0.15;;
16654;SDS011;8441;51.344;7.022;2022-07-06T04:35:05;0.10;;;0.10;;
16654;SDS011;8441;51.344;7.022;2022-07-06T04:37:33;0.15;;;0.15;;
16654;SDS011;8441;51.344;7.022;2022-07-06T04:40:00;0.10;;;0.10;;
16654;SDS011;8441;51.344;7.022;2022-07-06T04:42:27;0.13;;;0.13;;
16654;SDS011;8441;51.344;7.022;2022-07-06T04:44:55;0.10;;;0.10;;
16654;SDS011;8441;51.344;7.022;2022-07-06T04:47:23;0.20;;;0.20;;
16654;SDS011;8441;51.344;7.022;2022-07-06T04:49:51;0.10;;;0.10;;
16654;SDS011;8441;51.344;7.022;2022-07-06T04:52:18;0.17;;;0.17;;
16654;SDS011;8441;51.344;7.022;2022-07-06T04:54:45;0.10;;;0.10;;
16654;SDS011;8441;51.344;7.022;2022-07-06T04:57:12;0.10;;;0.10;;
16654;SDS011;8441;51.344;7.022;2022-07-06T04:59:39;0.20;;;0.20;;
16654;SDS011;8441;51.344;7.022;2022-07-06T05:02:07;0.10;;;0.10;;
16654;SDS011;8441;51.344;7.022;2022-07-06T05:04:35;0.10;;;0.10;;
16654;SDS011;8441;51.344;7.022;2022-07-06T05:07:03;0.10;;;0.10;;
16654;SDS011;8441;51.344;7.022;2022-07-06T05:09:30;0.10;;;0.10;;
16654;SDS011;8441;51.344;7.022;2022-07-06T05:11:57;0.10;;;0.10;;
16654;SDS011;8441;51.344;7.022;2022-07-06T05:14:24;0.10;;;0.10;;
16654;SDS011;8441;51.344;7.022;2022-07-06T05:16:52;0.20;;;0.20;;
16654;SDS011;8441;51.344;7.022;2022-07-06T05:19:19;0.10;;;0.10;;
16654;SDS011;8441;51.344;7.022;2022-07-06T05:21:48;0.10;;;0.10;;
16654;SDS011;8441;51.344;7.022;2022-07-06T05:24:15;0.20;;;0.20;;
16654;SDS011;8441;51.344;7.022;2022-07-06T05:26:42;0.17;;;0.17;;
16654;SDS011;8441;51.344;7.022;2022-07-06T05:29:09;0.13;;;0.13;;
16654;SDS011;8441;51.344;7.022;2022-07-06T05:31:37;0.10;;;0.10;;
16654;SDS011;8441;51.344;7.022;2022-07-06T05:34:04;0.10;;;0.10;;
16654;SDS011;8441;51.344;7.022;2022-07-06T05:36:31;0.10;;;0.10;;
16654;SDS011;8441;51.344;7.022;2022-07-06T05:38:59;0.10;;;0.10;;
16654;SDS011;8441;51.344;7.022;2022-07-06T05:41:27;0.17;;;0.17;;
16654;SDS011;8441;51.344;7.022;2022-07-06T05:43:54;0.10;;;0.10;;
16654;SDS011;8441;51.344;7.022;2022-07-06T05:46:21;0.10;;;0.10;;
16654;SDS011;8441;51.344;7.022;2022-07-06T05:48:48;0.10;;;0.10;;
16654;SDS011;8441;51.344;7.022;2022-07-06T05:51:33;0.10;;;0.10;;
16654;SDS011;8441;51.344;7.022;2022-07-06T05:54:02;0.10;;;0.10;;
16654;SDS011;8441;51.344;7.022;2022-07-06T05:56:29;0.10;;;0.10;;
16654;SDS011;8441;51.344;7.022;2022-07-06T05:58:56;0.10;;;0.10;;
16654;SDS011;8441;51.344;7.022;2022-07-06T06:01:23;0.20;;;0.20;;
16654;SDS011;8441;51.344;7.022;2022-07-06T06:03:50;0.10;;;0.10;;
16654;SDS011;8441;51.344;7.022;2022-07-06T06:06:18;0.10;;;0.10;;
16654;SDS011;8441;51.344;7.022;2022-07-06T06:08:45;0.13;;;0.13;;
16654;SDS011;8441;51.344;7.022;2022-07-06T06:11:14;0.20;;;0.20;;
16654;SDS011;8441;51.344;7.022;2022-07-06T06:13:41;0.10;;;0.10;;
16654;SDS011;8441;51.344;7.022;2022-07-06T06:16:08;0.10;;;0.10;;
16654;SDS011;8441;51.344;7.022;2022-07-06T06:18:35;0.10;;;0.10;;
16654;SDS011;8441;51.344;7.022;2022-07-06T06:21:02;0.13;;;0.13;;
16654;SDS011;8441;51.344;7.022;2022-07-06T06:23:30;0.10;;;0.10;;
16654;SDS011;8441;51.344;7.022;2022-07-06T06:25:57;0.10;;;0.10;;
16654;SDS011;8441;51.344;7.022;2022-07-06T06:28:26;0.10;;;0.10;;
16654;SDS011;8441;51.344;7.022;2022-07-06T06:30:53;0.10;;;0.10;;
16654;SDS011;8441;51.344;7.022;2022-07-06T06:33:20;0.08;;;0.08;;
16654;SDS011;8441;51.344;7.022;2022-07-06T06:35:48;0.00;;;0.00;;
16654;SDS011;8441;51.344;7.022;2022-07-06T06:38:17;0.08;;;0.08;;
16654;SDS011;8441;51.344;7.022;2022-07-06T06:40:45;0.00;;;0.00;;
16654;SDS011;8441;51.344;7.022;2022-07-06T06:43:12;0.00;;;0.00;;
16654;SDS011;8441;51.344;7.022;2022-07-06T06:45:41;0.10;;;0.10;;
16654;SDS011;8441;51.344;7.022;2022-07-06T06:48:10;0.10;;;0.10;;
16654;SDS011;8441;51.344;7.022;2022-07-06T06:50:37;0.10;;;0.10;;
16654;SDS011;8441;51.344;7.022;2022-07-06T06:53:04;0.00;;;0.00;;
16654;SDS011;8441;51.344;7.022;2022-07-06T06:55:31;0.00;;;0.00;;
16654;SDS011;8441;51.344;7.022;2022-07-06T06:57:58;0.10;;;0.10;;
16654;SDS011;8441;51.344;7.022;2022-07-06T07:00:26;0.10;;;0.10;;
16654;SDS011;8441;51.344;7.022;2022-07-06T07:02:54;0.10;;;0.10;;
16654;SDS011;8441;51.344;7.022;2022-07-06T07:05:21;0.10;;;0.10;;
16654;SDS011;8441;51.344;7.022;2022-07-06T07:07:49;0.00;;;0.00;;
16654;SDS011;8441;51.344;7.022;2022-07-06T07:10:16;0.10;;;0.10;;
16654;SDS011;8441;51.344;7.022;2022-07-06T07:12:44;0.10;;;0.10;;
16654;SDS011;8441;51.344;7.022;2022-07-06T07:15:11;0.10;;;0.10;;
16654;SDS011;8441;51.344;7.022;2022-07-06T07:17:39;0.10;;;0.10;;
16654;SDS011;8441;51.344;7.022;2022-07-06T07:20:08;0.10;;;0.10;;
16654;SDS011;8441;51.344;7.022;2022-07-06T07:22:36;0.03;;;0.03;;
16654;SDS011;8441;51.344;7.022;2022-07-06T07:25:03;0.10;;;0.10;;
16654;SDS011;8441;51.344;7.022;2022-07-06T07:27:32;0.10;;;0.10;;
16654;SDS011;8441;51.344;7.022;2022-07-06T07:30:00;0.10;;;0.10;;
16654;SDS011;8441;51.344;7.022;2022-07-06T07:32:27;0.10;;;0.10;;
16654;SDS011;8441;51.344;7.022;2022-07-06T07:34:54;0.10;;;0.10;;
16654;SDS011;8441;51.344;7.022;2022-07-06T07:37:23;0.10;;;0.10;;
16654;SDS011;8441;51.344;7.022;2022-07-06T07:39:50;0.08;;;0.08;;
16654;SDS011;8441;51.344;7.022;2022-07-06T07:42:17;0.10;;;0.10;;
16654;SDS011;8441;51.344;7.022;2022-07-06T07:44:44;0.00;;;0.00;;
16654;SDS011;8441;51.344;7.022;2022-07-06T07:47:12;0.00;;;0.00;;
16654;SDS011;8441;51.344;7.022;2022-07-06T07:49:39;0.00;;;0.00;;
16654;SDS011;8441;51.344;7.022;2022-07-06T07:52:06;0.10;;;0.10;;
16654;SDS011;8441;51.344;7.022;2022-07-06T07:54:35;0.08;;;0.08;;
16654;SDS011;8441;51.344;7.022;2022-07-06T07:57:03;0.00;;;0.00;;
16654;SDS011;8441;51.344;7.022;2022-07-06T07:59:30;0.10;;;0.10;;
16654;SDS011;8441;51.344;7.022;2022-07-06T08:01:58;0.10;;;0.10;;
16654;SDS011;8441;51.344;7.022;2022-07-06T08:04:25;0.10;;;0.10;;
16654;SDS011;8441;51.344;7.022;2022-07-06T08:06:52;0.00;;;0.00;;
16654;SDS011;8441;51.344;7.022;2022-07-06T08:09:19;0.10;;;0.10;;
16654;SDS011;8441;51.344;7.022;2022-07-06T08:11:47;0.10;;;0.10;;
16654;SDS011;8441;51.344;7.022;2022-07-06T08:14:15;0.10;;;0.10;;
16654;SDS011;8441;51.344;7.022;2022-07-06T08:16:42;0.05;;;0.05;;
16654;SDS011;8441;51.344;7.022;2022-07-06T08:19:09;0.00;;;0.00;;
16654;SDS011;8441;51.344;7.022;2022-07-06T08:21:40;0.10;;;0.10;;
16654;SDS011;8441;51.344;7.022;2022-07-06T08:24:07;0.00;;;0.00;;
16654;SDS011;8441;51.344;7.022;2022-07-06T08:26:35;0.10;;;0.10;;
16654;SDS011;8441;51.344;7.022;2022-07-06T08:29:04;0.10;;;0.10;;
16654;SDS011;8441;51.344;7.022;2022-07-06T08:31:31;0.00;;;0.00;;
16654;SDS011;8441;51.344;7.022;2022-07-06T08:33:59;0.10;;;0.10;;
16654;SDS011;8441;51.344;7.022;2022-07-06T08:36:26;0.10;;;0.10;;
16654;SDS011;8441;51.344;7.022;2022-07-06T08:38:54;0.10;;;0.10;;
16654;SDS011;8441;51.344;7.022;2022-07-06T08:41:21;0.10;;;0.10;;
16654;SDS011;8441;51.344;7.022;2022-07-06T08:43:50;0.00;;;0.00;;
16654;SDS011;8441;51.344;7.022;2022-07-06T08:46:20;0.00;;;0.00;;
16654;SDS011;8441;51.344;7.022;2022-07-06T08:48:48;0.00;;;0.00;;
16654;SDS011;8441;51.344;7.022;2022-07-06T08:51:15;0.00;;;0.00;;
16654;SDS011;8441;51.344;7.022;2022-07-06T08:53:43;0.10;;;0.10;;
16654;SDS011;8441;51.344;7.022;2022-07-06T08:56:14;0.10;;;0.10;;
16654;SDS011;8441;51.344;7.022;2022-07-06T08:58:42;0.00;;;0.00;;
16654;SDS011;8441;51.344;7.022;2022-07-06T09:01:09;0.00;;;0.00;;
16654;SDS011;8441;51.344;7.022;2022-07-06T09:03:39;0.00;;;0.00;;
16654;SDS011;8441;51.344;7.022;2022-07-06T09:06:07;0.05;;;0.05;;
16654;SDS011;8441;51.344;7.022;2022-07-06T09:08:35;0.00;;;0.00;;
16654;SDS011;8441;51.344;7.022;2022-07-06T09:11:02;0.05;;;0.05;;
16654;SDS011;8441;51.344;7.022;2022-07-06T09:13:30;0.08;;;0.08;;
16654;SDS011;8441;51.344;7.022;2022-07-06T09:16:08;0.10;;;0.10;;
16654;SDS011;8441;51.344;7.022;2022-07-06T09:18:36;0.10;;;0.10;;
16654;SDS011;8441;51.344;7.022;2022-07-06T09:21:05;0.10;;;0.10;;
16654;SDS011;8441;51.344;7.022;2022-07-06T09:23:33;0.10;;;0.10;;
16654;SDS011;8441;51.344;7.022;2022-07-06T09:26:02;0.00;;;0.00;;
16654;SDS011;8441;51.344;7.022;2022-07-06T09:28:40;0.00;;;0.00;;
16654;SDS011;8441;51.344;7.022;2022-07-06T09:31:07;0.00;;;0.00;;
16654;SDS011;8441;51.344;7.022;2022-07-06T09:33:35;0.10;;;0.10;;
16654;SDS011;8441;51.344;7.022;2022-07-06T09:36:03;0.00;;;0.00;;
16654;SDS011;8441;51.344;7.022;2022-07-06T09:38:32;0.03;;;0.03;;
16654;SDS011;8441;51.344;7.022;2022-07-06T09:40:59;0.10;;;0.10;;
16654;SDS011;8441;51.344;7.022;2022-07-06T09:43:28;0.10;;;0.10;;
16654;SDS011;8441;51.344;7.022;2022-07-06T09:45:58;0.00;;;0.00;;
16654;SDS011;8441;51.344;7.022;2022-07-06T09:48:26;0.00;;;0.00;;
16654;SDS011;8441;51.344;7.022;2022-07-06T09:50:54;0.10;;;0.10;;
16654;SDS011;8441;51.344;7.022;2022-07-06T09:53:23;0.10;;;0.10;;
16654;SDS011;8441;51.344;7.022;2022-07-06T09:55:52;0.10;;;0.10;;
16654;SDS011;8441;51.344;7.022;2022-07-06T09:58:21;0.00;;;0.00;;
16654;SDS011;8441;51.344;7.022;2022-07-06T10:00:49;0.00;;;0.00;;
16654;SDS011;8441;51.344;7.022;2022-07-06T10:03:16;0.10;;;0.10;;
16654;SDS011;8441;51.344;7.022;2022-07-06T10:05:45;0.00;;;0.00;;
16654;SDS011;8441;51.344;7.022;2022-07-06T10:08:14;0.10;;;0.10;;
16654;SDS011;8441;51.344;7.022;2022-07-06T10:10:42;0.05;;;0.05;;
16654;SDS011;8441;51.344;7.022;2022-07-06T10:13:12;0.00;;;0.00;;
16654;SDS011;8441;51.344;7.022;2022-07-06T10:15:40;0.00;;;0.00;;
16654;SDS011;8441;51.344;7.022;2022-07-06T10:18:08;0.00;;;0.00;;
16654;SDS011;8441;51.344;7.022;2022-07-06T10:20:37;0.00;;;0.00;;
16654;SDS011;8441;51.344;7.022;2022-07-06T10:23:06;0.00;;;0.00;;
16654;SDS011;8441;51.344;7.022;2022-07-06T10:25:35;0.00;;;0.00;;
16654;SDS011;8441;51.344;7.022;2022-07-06T10:28:02;0.00;;;0.00;;
16654;SDS011;8441;51.344;7.022;2022-07-06T10:30:40;0.00;;;0.00;;
16654;SDS011;8441;51.344;7.022;2022-07-06T10:33:08;0.00;;;0.00;;
16654;SDS011;8441;51.344;7.022;2022-07-06T10:35:37;0.00;;;0.00;;
16654;SDS011;8441;51.344;7.022;2022-07-06T10:38:08;0.00;;;0.00;;
16654;SDS011;8441;51.344;7.022;2022-07-06T10:40:37;0.00;;;0.00;;
16654;SDS011;8441;51.344;7.022;2022-07-06T10:43:22;0.00;;;0.00;;
16654;SDS011;8441;51.344;7.022;2022-07-06T10:45:52;0.00;;;0.00;;
16654;SDS011;8441;51.344;7.022;2022-07-06T10:48:20;0.00;;;0.00;;
16654;SDS011;8441;51.344;7.022;2022-07-06T10:50:48;0.00;;;0.00;;
16654;SDS011;8441;51.344;7.022;2022-07-06T10:53:17;0.00;;;0.00;;
16654;SDS011;8441;51.344;7.022;2022-07-06T10:55:49;0.00;;;0.00;;
16654;SDS011;8441;51.344;7.022;2022-07-06T11:01:15;0.00;;;0.00;;
16654;SDS011;8441;51.344;7.022;2022-07-06T11:03:42;0.00;;;0.00;;
16654;SDS011;8441;51.344;7.022;2022-07-06T11:06:11;0.00;;;0.00;;
16654;SDS011;8441;51.344;7.022;2022-07-06T11:08:41;0.00;;;0.00;;
16654;SDS011;8441;51.344;7.022;2022-07-06T11:11:20;0.00;;;0.00;;
16654;SDS011;8441;51.344;7.022;2022-07-06T11:13:48;0.00;;;0.00;;
16654;SDS011;8441;51.344;7.022;2022-07-06T11:16:22;0.00;;;0.00;;
16654;SDS011;8441;51.344;7.022;2022-07-06T11:18:59;0.00;;;0.00;;
16654;SDS011;8441;51.344;7.022;2022-07-06T11:21:41;0.00;;;0.00;;
16654;SDS011;8441;51.344;7.022;2022-07-06T11:24:12;0.00;;;0.00;;
16654;SDS011;8441;51.344;7.022;2022-07-06T11:26:41;0.00;;;0.00;;
16654;SDS011;8441;51.344;7.022;2022-07-06T11:29:10;0.00;;;0.00;;
16654;SDS011;8441;51.344;7.022;2022-07-06T11:31:40;0.00;;;0.00;;
16654;SDS011;8441;51.344;7.022;2022-07-06T11:34:08;0.00;;;0.00;;
16654;SDS011;8441;51.344;7.022;2022-07-06T11:36:37;0.10;;;0.10;;
16654;SDS011;8441;51.344;7.022;2022-07-06T11:39:06;0.00;;;0.00;;
16654;SDS011;8441;51.344;7.022;2022-07-06T11:41:33;0.00;;;0.00;;
16654;SDS011;8441;51.344;7.022;2022-07-06T11:44:02;0.00;;;0.00;;
16654;SDS011;8441;51.344;7.022;2022-07-06T11:46:30;0.00;;;0.00;;
16654;SDS011;8441;51.344;7.022;2022-07-06T11:49:01;0.00;;;0.00;;
16654;SDS011;8441;51.344;7.022;2022-07-06T11:51:30;0.00;;;0.00;;
16654;SDS011;8441;51.344;7.022;2022-07-06T11:54:00;0.00;;;0.00;;
16654;SDS011;8441;51.344;7.022;2022-07-06T11:56:28;0.00;;;0.00;;
16654;SDS011;8441;51.344;7.022;2022-07-06T11:58:56;0.00;;;0.00;;
16654;SDS011;8441;51.344;7.022;2022-07-06T12:01:25;0.00;;;0.00;;
16654;SDS011;8441;51.344;7.022;2022-07-06T12:03:56;0.00;;;0.00;;
16654;SDS011;8441;51.344;7.022;2022-07-06T12:06:26;0.00;;;0.00;;
16654;SDS011;8441;51.344;7.022;2022-07-06T12:08:55;0.10;;;0.10;;
16654;SDS011;8441;51.344;7.022;2022-07-06T12:11:23;0.10;;;0.10;;
16654;SDS011;8441;51.344;7.022;2022-07-06T12:13:52;0.00;;;0.00;;
16654;SDS011;8441;51.344;7.022;2022-07-06T12:16:21;0.10;;;0.10;;
16654;SDS011;8441;51.344;7.022;2022-07-06T12:18:54;0.00;;;0.00;;
16654;SDS011;8441;51.344;7.022;2022-07-06T12:21:22;0.10;;;0.10;;
16654;SDS011;8441;51.344;7.022;2022-07-06T12:23:51;0.00;;;0.00;;
16654;SDS011;8441;51.344;7.022;2022-07-06T12:26:19;0.00;;;0.00;;
16654;SDS011;8441;51.344;7.022;2022-07-06T12:28:58;0.00;;;0.00;;
16654;SDS011;8441;51.344;7.022;2022-07-06T12:31:33;0.00;;;0.00;;
16654;SDS011;8441;51.344;7.022;2022-07-06T12:34:01;0.10;;;0.10;;
16654;SDS011;8441;51.344;7.022;2022-07-06T12:36:29;0.00;;;0.00;;
16654;SDS011;8441;51.344;7.022;2022-07-06T12:38:57;0.00;;;0.00;;
16654;SDS011;8441;51.344;7.022;2022-07-06T12:41:28;0.00;;;0.00;;
16654;SDS011;8441;51.344;7.022;2022-07-06T12:44:02;0.00;;;0.00;;
16654;SDS011;8441;51.344;7.022;2022-07-06T12:46:31;0.00;;;0.00;;
16654;SDS011;8441;51.344;7.022;2022-07-06T12:49:00;0.10;;;0.10;;
16654;SDS011;8441;51.344;7.022;2022-07-06T12:51:29;0.00;;;0.00;;
16654;SDS011;8441;51.344;7.022;2022-07-06T12:54:15;0.00;;;0.00;;
16654;SDS011;8441;51.344;7.022;2022-07-06T12:56:59;0.00;;;0.00;;
16654;SDS011;8441;51.344;7.022;2022-07-06T12:59:38;0.00;;;0.00;;
16654;SDS011;8441;51.344;7.022;2022-07-06T13:02:08;0.00;;;0.00;;
16654;SDS011;8441;51.344;7.022;2022-07-06T13:04:36;0.00;;;0.00;;
16654;SDS011;8441;51.344;7.022;2022-07-06T13:07:04;0.00;;;0.00;;
16654;SDS011;8441;51.344;7.022;2022-07-06T13:09:34;0.05;;;0.05;;
16654;SDS011;8441;51.344;7.022;2022-07-06T13:12:01;0.00;;;0.00;;
16654;SDS011;8441;51.344;7.022;2022-07-06T13:14:29;0.00;;;0.00;;
16654;SDS011;8441;51.344;7.022;2022-07-06T13:16:56;0.00;;;0.00;;
16654;SDS011;8441;51.344;7.022;2022-07-06T13:19:23;0.00;;;0.00;;
16654;SDS011;8441;51.344;7.022;2022-07-06T13:21:50;0.00;;;0.00;;
16654;SDS011;8441;51.344;7.022;2022-07-06T13:24:17;0.00;;;0.00;;
16654;SDS011;8441;51.344;7.022;2022-07-06T13:26:46;0.10;;;0.10;;
16654;SDS011;8441;51.344;7.022;2022-07-06T13:29:13;0.00;;;0.00;;
16654;SDS011;8441;51.344;7.022;2022-07-06T13:31:40;0.00;;;0.00;;
16654;SDS011;8441;51.344;7.022;2022-07-06T13:34:08;0.10;;;0.10;;
16654;SDS011;8441;51.344;7.022;2022-07-06T13:36:35;0.00;;;0.00;;
16654;SDS011;8441;51.344;7.022;2022-07-06T13:39:03;0.00;;;0.00;;
16654;SDS011;8441;51.344;7.022;2022-07-06T13:41:30;0.00;;;0.00;;
16654;SDS011;8441;51.344;7.022;2022-07-06T13:43:59;0.05;;;0.05;;
16654;SDS011;8441;51.344;7.022;2022-07-06T13:46:27;0.00;;;0.00;;
16654;SDS011;8441;51.344;7.022;2022-07-06T13:48:54;0.00;;;0.00;;
16654;SDS011;8441;51.344;7.022;2022-07-06T13:51:22;0.00;;;0.00;;
16654;SDS011;8441;51.344;7.022;2022-07-06T13:53:50;0.00;;;0.00;;
16654;SDS011;8441;51.344;7.022;2022-07-06T13:56:17;0.00;;;0.00;;
16654;SDS011;8441;51.344;7.022;2022-07-06T13:58:45;0.00;;;0.00;;
16654;SDS011;8441;51.344;7.022;2022-07-06T14:01:14;0.00;;;0.00;;
16654;SDS011;8441;51.344;7.022;2022-07-06T14:03:41;0.10;;;0.10;;
16654;SDS011;8441;51.344;7.022;2022-07-06T14:06:09;0.00;;;0.00;;
16654;SDS011;8441;51.344;7.022;2022-07-06T14:08:37;0.00;;;0.00;;
16654;SDS011;8441;51.344;7.022;2022-07-06T14:11:05;0.00;;;0.00;;
16654;SDS011;8441;51.344;7.022;2022-07-06T14:13:33;0.00;;;0.00;;
16654;SDS011;8441;51.344;7.022;2022-07-06T14:16:00;0.00;;;0.00;;
16654;SDS011;8441;51.344;7.022;2022-07-06T14:18:30;0.00;;;0.00;;
16654;SDS011;8441;51.344;7.022;2022-07-06T14:20:57;0.00;;;0.00;;
16654;SDS011;8441;51.344;7.022;2022-07-06T14:23:25;0.00;;;0.00;;
16654;SDS011;8441;51.344;7.022;2022-07-06T14:25:53;0.00;;;0.00;;
16654;SDS011;8441;51.344;7.022;2022-07-06T14:28:20;0.00;;;0.00;;
16654;SDS011;8441;51.344;7.022;2022-07-06T14:30:48;0.00;;;0.00;;
16654;SDS011;8441;51.344;7.022;2022-07-06T14:33:15;0.00;;;0.00;;
16654;SDS011;8441;51.344;7.022;2022-07-06T14:35:46;0.00;;;0.00;;
16654;SDS011;8441;51.344;7.022;2022-07-06T14:38:15;0.00;;;0.00;;
16654;SDS011;8441;51.344;7.022;2022-07-06T14:40:43;0.00;;;0.00;;
16654;SDS011;8441;51.344;7.022;2022-07-06T14:43:10;0.00;;;0.00;;
16654;SDS011;8441;51.344;7.022;2022-07-06T14:45:38;0.00;;;0.00;;
16654;SDS011;8441;51.344;7.022;2022-07-06T14:48:05;0.00;;;0.00;;
16654;SDS011;8441;51.344;7.022;2022-07-06T14:50:33;0.00;;;0.00;;
16654;SDS011;8441;51.344;7.022;2022-07-06T14:53:02;0.00;;;0.00;;
16654;SDS011;8441;51.344;7.022;2022-07-06T14:55:30;0.00;;;0.00;;
16654;SDS011;8441;51.344;7.022;2022-07-06T14:57:57;0.00;;;0.00;;
16654;SDS011;8441;51.344;7.022;2022-07-06T15:00:24;0.00;;;0.00;;
16654;SDS011;8441;51.344;7.022;2022-07-06T15:02:51;0.00;;;0.00;;
16654;SDS011;8441;51.344;7.022;2022-07-06T15:05:18;0.00;;;0.00;;
16654;SDS011;8441;51.344;7.022;2022-07-06T15:07:46;0.00;;;0.00;;
16654;SDS011;8441;51.344;7.022;2022-07-06T15:10:15;0.00;;;0.00;;